»·PEaware :: DAL821 KSLC-KSMF

DAL821 :: KSLC-KSMF

FLIGHT INFORMATION

Flight Status: Arrived
Operator:
Delta Air Lines
More flights by this operator :: More flights under this callsign
Pilot: Andre N. (13929)
Aircraft: BOEING 757-200
(B752)
More flights by this aircraft type
Origin: KSLC Salt Lake City Intl
United States
Destination: KSMF Sacramento Intl
United States
More flights between these airports :: More routes between these airports
Route: PECOP5 BAM J32 LLC ANAHO SLMMR3
File this flight plan on PilotEdge
Remarks:
Altitude:
(Current/Filed)
36,000ft
Speed:
(Current/Filed)
450kts
Departed: 01-May-18 08:10 AM
Arrived: 01-May-18 09:33 AM
Distance/Time
Traveled:
461nm/1:23
Distance/Time
To Go:
Arrived

Flight Plot

Page will automatically refresh every two minutes.

Flight plan parsing failed; only flown route is shown


Map Options




Map Legend


Flown Route
Filed Route
Departure Airport
Arrival Airport
Navaid (VOR, NDB)
Fix

Horizontal Profiles

Position Reports

Time Latitude Longitude Heading Altitude Ground
Speed
01-May-18 07:38 40.789277 -111.978342 187 4238ft 0kts
01-May-18 07:39 40.789277 -111.978342 187 4238ft 0kts
01-May-18 07:40 40.789277 -111.978342 187 4238ft 0kts
01-May-18 07:41 40.789277 -111.978342 187 4238ft 0kts
01-May-18 07:42 40.789277 -111.978342 187 4238ft 0kts
01-May-18 07:43 40.789277 -111.978342 187 4239ft 0kts
01-May-18 07:44 40.789277 -111.978342 187 4239ft 0kts
01-May-18 07:45 40.789277 -111.978342 187 4239ft 0kts
01-May-18 07:46 40.789277 -111.978342 187 4239ft 0kts
01-May-18 07:47 40.789277 -111.978342 187 4239ft 0kts
01-May-18 07:48 40.789277 -111.978342 187 4238ft 0kts
01-May-18 07:49 40.789277 -111.978342 187 4238ft 0kts
01-May-18 07:50 40.789277 -111.978342 187 4238ft 0kts
01-May-18 07:51 40.789277 -111.978342 187 4238ft 0kts
01-May-18 07:52 40.789277 -111.978342 187 4238ft 0kts
01-May-18 07:53 40.789277 -111.978342 187 4238ft 0kts
01-May-18 07:54 40.789277 -111.978342 187 4238ft 0kts
01-May-18 07:55 40.789277 -111.978342 187 4238ft 0kts
01-May-18 07:56 40.789277 -111.978342 187 4238ft 0kts
01-May-18 07:57 40.789277 -111.978342 187 4238ft 0kts
01-May-18 07:58 40.789684 -111.978370 133 4238ft 2kts
01-May-18 07:59 40.789595 -111.979036 84 4238ft 0kts
01-May-18 08:00 40.789639 -111.978449 84 4238ft 0kts
01-May-18 08:01 40.789639 -111.978449 84 4238ft 0kts
01-May-18 08:02 40.789692 -111.977977 81 4238ft 0kts
01-May-18 08:03 40.790163 -111.977160 8 4238ft 9kts
01-May-18 08:04 40.793598 -111.977498 355 4238ft 15kts
01-May-18 08:05 40.798257 -111.978042 355 4238ft 16kts
01-May-18 08:06 40.802411 -111.978466 5 4238ft 12kts
01-May-18 08:07 40.805541 -111.978433 354 4238ft 10kts
01-May-18 08:08 40.807136 -111.978441 30 4238ft 3kts
01-May-18 08:09 40.804600 -111.976614 174 4238ft 58kts
01-May-18 08:10 40.766441 -111.981752 233 5585ft 177kts
01-May-18 08:11 40.749339 -112.051325 268 7261ft 222kts
01-May-18 08:12 40.771071 -112.129374 294 9942ft 235kts
01-May-18 08:13 40.799312 -112.213820 294 11972ft 278kts
01-May-18 08:14 40.828222 -112.299873 294 14307ft 291kts
01-May-18 08:15 40.859871 -112.402065 291 16057ft 327kts
01-May-18 08:16 40.866093 -112.520030 264 18411ft 336kts
01-May-18 08:17 40.857199 -112.643091 262 20662ft 347kts
01-May-18 08:18 40.847411 -112.763497 261 22703ft 355kts
01-May-18 08:19 40.842025 -112.894570 267 24714ft 365kts
01-May-18 08:20 40.842350 -113.029794 267 26594ft 372kts
01-May-18 08:21 40.842605 -113.171612 268 27199ft 414kts
01-May-18 08:22 40.842730 -113.332034 268 27907ft 450kts
01-May-18 08:23 40.842620 -113.498536 268 29578ft 459kts
01-May-18 08:24 40.842260 -113.665445 267 31147ft 464kts
01-May-18 08:25 40.841666 -113.832414 268 33359ft 454kts
01-May-18 08:26 40.840775 -113.987342 268 35216ft 449kts
01-May-18 08:27 40.839595 -114.151218 268 35943ft 445kts
01-May-18 08:28 40.838412 -114.291373 268 35943ft 445kts
01-May-18 08:29 40.836817 -114.454123 268 35946ft 445kts
01-May-18 08:30 40.834991 -114.616883 268 35946ft 445kts
01-May-18 08:31 40.829798 -114.777554 260 35955ft 444kts
01-May-18 08:32 40.812041 -114.938293 260 35969ft 443kts
01-May-18 08:33 40.793680 -115.099396 261 35972ft 449kts
01-May-18 08:34 40.774755 -115.263164 261 35972ft 455kts
01-May-18 08:35 40.755606 -115.426606 262 35972ft 455kts
01-May-18 08:36 40.736101 -115.591009 262 35972ft 456kts
01-May-18 08:37 40.716621 -115.753155 261 35974ft 456kts
01-May-18 08:38 40.697507 -115.910358 261 35970ft 456kts
01-May-18 08:39 40.677242 -116.075003 261 35971ft 455kts
01-May-18 08:40 40.656826 -116.238944 261 35974ft 455kts
01-May-18 08:41 40.636161 -116.402878 261 35989ft 456kts
01-May-18 08:42 40.615222 -116.567036 261 35988ft 455kts
01-May-18 08:43 40.594384 -116.728563 260 35993ft 456kts
01-May-18 08:44 40.572975 -116.892545 260 35985ft 456kts
01-May-18 08:45 40.535105 -117.051996 253 35990ft 463kts
01-May-18 08:46 40.493209 -117.213046 253 35991ft 470kts
01-May-18 08:47 40.450678 -117.374748 253 35990ft 470kts
01-May-18 08:48 40.407844 -117.536438 253 35993ft 470kts
01-May-18 08:49 40.366825 -117.690281 252 35993ft 470kts
01-May-18 08:50 40.324302 -117.848765 252 35992ft 470kts
01-May-18 08:51 40.280785 -118.009926 252 35978ft 470kts
01-May-18 08:52 40.237004 -118.171012 252 35971ft 470kts
01-May-18 08:53 40.193062 -118.331687 252 35974ft 471kts
01-May-18 08:54 40.148838 -118.492366 252 35975ft 471kts
01-May-18 08:55 40.110347 -118.653018 258 35974ft 468kts
01-May-18 08:56 40.080131 -118.811183 258 35975ft 468kts
01-May-18 08:57 40.047648 -118.977982 260 35978ft 484kts
01-May-18 08:58 40.013903 -119.149827 261 35984ft 493kts
01-May-18 09:00 39.979771 -119.322047 261 36007ft 492kts
01-May-18 09:01 39.923854 -119.485911 240 35042ft 511kts
01-May-18 09:02 39.853997 -119.620272 239 33181ft 515kts
01-May-18 09:03 39.784442 -119.752672 237 31277ft 518kts
01-May-18 09:04 39.705844 -119.901475 237 29090ft 503kts
01-May-18 09:05 39.628233 -120.047709 236 26875ft 484kts
01-May-18 09:06 39.553734 -120.187473 235 24679ft 465kts
01-May-18 09:07 39.482235 -120.320113 231 22514ft 448kts
01-May-18 09:08 39.391693 -120.414674 212 20594ft 406kts
01-May-18 09:09 39.300793 -120.494255 212 18917ft 390kts
01-May-18 09:10 39.212375 -120.570875 212 17236ft 377kts
01-May-18 09:11 39.127014 -120.644578 212 15557ft 364kts
01-May-18 09:12 39.069209 -120.714886 245 14205ft 359kts
01-May-18 09:13 39.037214 -120.833147 250 12526ft 345kts
01-May-18 09:14 39.007149 -120.948001 251 10829ft 337kts
01-May-18 09:15 38.980857 -121.048274 252 10019ft 277kts
01-May-18 09:16 38.956903 -121.140137 255 9417ft 260kts
01-May-18 09:17 38.936837 -121.225431 255 8812ft 240kts
01-May-18 09:18 38.917492 -121.306672 255 8223ft 236kts
01-May-18 09:19 38.898497 -121.385803 252 7930ft 235kts
01-May-18 09:20 38.863594 -121.447363 234 7413ft 232kts
01-May-18 09:21 38.823243 -121.512753 234 6903ft 235kts
01-May-18 09:22 38.782740 -121.578046 233 6399ft 236kts
01-May-18 09:23 38.743226 -121.644944 235 5850ft 237kts
01-May-18 09:24 38.696728 -121.693571 181 4129ft 230kts
01-May-18 09:25 38.633210 -121.699843 185 3714ft 224kts
01-May-18 09:26 38.573977 -121.706909 185 3032ft 200kts
01-May-18 09:27 38.527035 -121.688044 96 3010ft 190kts
01-May-18 09:28 38.553991 -121.638134 43 2845ft 170kts
01-May-18 09:29 38.587042 -121.600326 6 2005ft 148kts
01-May-18 09:30 38.622930 -121.602471 0 1346ft 126kts
01-May-18 09:31 38.655860 -121.601962 0 684ft 125kts
01-May-18 09:31 38.684213 -121.601424 0 84ft 119kts
01-May-18 09:32 38.701283 -121.600144 88 32ft 2kts
01-May-18 09:33 38.700792 -121.598583 172 32ft 11kts
01-May-18 09:34 38.697164 -121.598390 131 32ft 12kts
01-May-18 09:36 38.696141 -121.595875 135 32ft 1kts
01-May-18 09:37 38.695966 -121.595335 107 32ft 0kts
01-May-18 09:37 38.695966 -121.595335 107 32ft 0kts
01-May-18 09:38 38.695966 -121.595335 107 32ft 0kts

Navigation Log

Ident Type
Flight plan parsing failed, navigation log unavailable